sensor_id;sensor_type;location;lat;lon;timestamp;P1;durP1;ratioP1;P2;durP2;ratioP2
7267;SDS011;3675;43.276;27.962;2022-07-22T00:01:34;1.65;;;1.60;;
7267;SDS011;3675;43.276;27.962;2022-07-22T00:04:00;1.83;;;1.73;;
7267;SDS011;3675;43.276;27.962;2022-07-22T00:06:26;2.25;;;1.60;;
7267;SDS011;3675;43.276;27.962;2022-07-22T00:08:52;1.63;;;1.52;;
7267;SDS011;3675;43.276;27.962;2022-07-22T00:11:18;1.67;;;1.58;;
7267;SDS011;3675;43.276;27.962;2022-07-22T00:13:43;1.40;;;1.40;;
7267;SDS011;3675;43.276;27.962;2022-07-22T00:16:10;1.80;;;1.70;;
7267;SDS011;3675;43.276;27.962;2022-07-22T00:18:35;1.50;;;1.50;;
7267;SDS011;3675;43.276;27.962;2022-07-22T00:21:01;1.50;;;1.40;;
7267;SDS011;3675;43.276;27.962;2022-07-22T00:23:27;1.60;;;1.50;;
7267;SDS011;3675;43.276;27.962;2022-07-22T00:25:52;1.67;;;1.58;;
7267;SDS011;3675;43.276;27.962;2022-07-22T00:28:20;4.82;;;1.98;;
7267;SDS011;3675;43.276;27.962;2022-07-22T00:30:46;1.67;;;1.55;;
7267;SDS011;3675;43.276;27.962;2022-07-22T00:33:11;1.42;;;1.42;;
7267;SDS011;3675;43.276;27.962;2022-07-22T00:35:37;1.30;;;1.30;;
7267;SDS011;3675;43.276;27.962;2022-07-22T00:38:02;2.05;;;1.95;;
7267;SDS011;3675;43.276;27.962;2022-07-22T00:40:31;1.77;;;1.60;;
7267;SDS011;3675;43.276;27.962;2022-07-22T00:43:05;1.65;;;1.55;;
7267;SDS011;3675;43.276;27.962;2022-07-22T00:45:37;1.92;;;1.73;;
7267;SDS011;3675;43.276;27.962;2022-07-22T00:48:05;3.08;;;1.67;;
7267;SDS011;3675;43.276;27.962;2022-07-22T00:50:30;1.77;;;1.67;;
7267;SDS011;3675;43.276;27.962;2022-07-22T00:52:56;5.25;;;1.98;;
7267;SDS011;3675;43.276;27.962;2022-07-22T00:55:21;2.05;;;1.67;;
7267;SDS011;3675;43.276;27.962;2022-07-22T00:57:47;1.88;;;1.77;;
7267;SDS011;3675;43.276;27.962;2022-07-22T01:00:16;2.28;;;1.83;;
7267;SDS011;3675;43.276;27.962;2022-07-22T01:02:41;3.00;;;1.95;;
7267;SDS011;3675;43.276;27.962;2022-07-22T01:05:10;5.25;;;2.15;;
7267;SDS011;3675;43.276;27.962;2022-07-22T01:07:36;2.22;;;2.13;;
7267;SDS011;3675;43.276;27.962;2022-07-22T01:10:02;2.00;;;1.80;;
7267;SDS011;3675;43.276;27.962;2022-07-22T01:12:27;2.45;;;1.92;;
7267;SDS011;3675;43.276;27.962;2022-07-22T01:14:53;1.98;;;1.60;;
7267;SDS011;3675;43.276;27.962;2022-07-22T01:17:18;1.73;;;1.63;;
7267;SDS011;3675;43.276;27.962;2022-07-22T01:19:43;2.00;;;1.80;;
7267;SDS011;3675;43.276;27.962;2022-07-22T01:22:12;1.92;;;1.70;;
7267;SDS011;3675;43.276;27.962;2022-07-22T01:24:38;3.70;;;2.00;;
7267;SDS011;3675;43.276;27.962;2022-07-22T01:27:03;1.95;;;1.85;;
7267;SDS011;3675;43.276;27.962;2022-07-22T01:29:29;2.22;;;2.03;;
7267;SDS011;3675;43.276;27.962;2022-07-22T01:31:54;1.90;;;1.58;;
7267;SDS011;3675;43.276;27.962;2022-07-22T01:34:20;1.90;;;1.80;;
7267;SDS011;3675;43.276;27.962;2022-07-22T01:36:45;2.05;;;1.85;;
7267;SDS011;3675;43.276;27.962;2022-07-22T01:39:10;2.47;;;1.80;;
7267;SDS011;3675;43.276;27.962;2022-07-22T01:41:36;1.27;;;1.20;;
7267;SDS011;3675;43.276;27.962;2022-07-22T01:44:02;2.15;;;2.03;;
7267;SDS011;3675;43.276;27.962;2022-07-22T01:46:27;2.33;;;2.22;;
7267;SDS011;3675;43.276;27.962;2022-07-22T01:48:53;3.47;;;1.83;;
7267;SDS011;3675;43.276;27.962;2022-07-22T01:51:21;3.60;;;1.92;;
7267;SDS011;3675;43.276;27.962;2022-07-22T01:53:47;1.95;;;1.80;;
7267;SDS011;3675;43.276;27.962;2022-07-22T01:56:12;1.92;;;1.60;;
7267;SDS011;3675;43.276;27.962;2022-07-22T01:58:37;2.30;;;2.10;;
7267;SDS011;3675;43.276;27.962;2022-07-22T02:01:03;3.05;;;2.13;;
7267;SDS011;3675;43.276;27.962;2022-07-22T02:03:28;2.40;;;2.20;;
7267;SDS011;3675;43.276;27.962;2022-07-22T02:05:53;2.00;;;1.90;;
7267;SDS011;3675;43.276;27.962;2022-07-22T02:08:19;1.92;;;1.83;;
7267;SDS011;3675;43.276;27.962;2022-07-22T02:10:45;1.80;;;1.70;;
7267;SDS011;3675;43.276;27.962;2022-07-22T02:13:10;1.80;;;1.70;;
7267;SDS011;3675;43.276;27.962;2022-07-22T02:15:36;2.50;;;1.98;;
7267;SDS011;3675;43.276;27.962;2022-07-22T02:18:14;2.47;;;2.00;;
7267;SDS011;3675;43.276;27.962;2022-07-22T02:20:40;2.03;;;1.92;;
7267;SDS011;3675;43.276;27.962;2022-07-22T02:23:05;1.90;;;1.80;;
7267;SDS011;3675;43.276;27.962;2022-07-22T02:25:31;2.45;;;2.25;;
7267;SDS011;3675;43.276;27.962;2022-07-22T02:27:56;2.08;;;1.95;;
7267;SDS011;3675;43.276;27.962;2022-07-22T02:30:22;1.90;;;1.80;;
7267;SDS011;3675;43.276;27.962;2022-07-22T02:32:47;1.88;;;1.77;;
7267;SDS011;3675;43.276;27.962;2022-07-22T02:35:12;3.78;;;2.05;;
7267;SDS011;3675;43.276;27.962;2022-07-22T02:37:38;2.00;;;1.90;;
7267;SDS011;3675;43.276;27.962;2022-07-22T02:40:04;4.53;;;1.45;;
7267;SDS011;3675;43.276;27.962;2022-07-22T02:42:30;1.90;;;1.80;;
7267;SDS011;3675;43.276;27.962;2022-07-22T02:44:58;2.65;;;1.90;;
7267;SDS011;3675;43.276;27.962;2022-07-22T02:47:24;2.38;;;2.17;;
7267;SDS011;3675;43.276;27.962;2022-07-22T02:49:56;2.38;;;2.25;;
7267;SDS011;3675;43.276;27.962;2022-07-22T02:52:21;2.30;;;2.17;;
7267;SDS011;3675;43.276;27.962;2022-07-22T02:54:47;3.15;;;2.10;;
7267;SDS011;3675;43.276;27.962;2022-07-22T02:57:19;2.40;;;2.30;;
7267;SDS011;3675;43.276;27.962;2022-07-22T02:59:47;2.30;;;2.10;;
7267;SDS011;3675;43.276;27.962;2022-07-22T03:02:31;4.15;;;2.33;;
7267;SDS011;3675;43.276;27.962;2022-07-22T03:05:00;2.30;;;2.10;;
7267;SDS011;3675;43.276;27.962;2022-07-22T03:07:26;2.50;;;2.30;;
7267;SDS011;3675;43.276;27.962;2022-07-22T03:09:52;2.65;;;2.45;;
7267;SDS011;3675;43.276;27.962;2022-07-22T03:12:18;2.08;;;1.98;;
7267;SDS011;3675;43.276;27.962;2022-07-22T03:14:46;5.22;;;2.25;;
7267;SDS011;3675;43.276;27.962;2022-07-22T03:17:11;4.30;;;2.10;;
7267;SDS011;3675;43.276;27.962;2022-07-22T03:19:47;1.95;;;1.85;;
7267;SDS011;3675;43.276;27.962;2022-07-22T03:22:21;2.47;;;2.22;;
7267;SDS011;3675;43.276;27.962;2022-07-22T03:24:47;2.55;;;2.15;;
7267;SDS011;3675;43.276;27.962;2022-07-22T03:27:16;2.08;;;1.98;;
7267;SDS011;3675;43.276;27.962;2022-07-22T03:29:41;2.25;;;1.88;;
7267;SDS011;3675;43.276;27.962;2022-07-22T03:32:07;4.50;;;2.85;;
7267;SDS011;3675;43.276;27.962;2022-07-22T03:34:32;2.60;;;2.50;;
7267;SDS011;3675;43.276;27.962;2022-07-22T03:36:58;2.05;;;1.95;;
7267;SDS011;3675;43.276;27.962;2022-07-22T03:39:23;2.17;;;2.08;;
7267;SDS011;3675;43.276;27.962;2022-07-22T03:41:52;2.50;;;2.30;;
7267;SDS011;3675;43.276;27.962;2022-07-22T03:44:21;2.25;;;2.13;;
7267;SDS011;3675;43.276;27.962;2022-07-22T03:46:53;2.17;;;2.08;;
7267;SDS011;3675;43.276;27.962;2022-07-22T03:49:19;2.88;;;2.40;;
7267;SDS011;3675;43.276;27.962;2022-07-22T03:51:44;2.25;;;2.05;;
7267;SDS011;3675;43.276;27.962;2022-07-22T03:54:10;2.13;;;1.92;;
7267;SDS011;3675;43.276;27.962;2022-07-22T03:56:42;2.00;;;1.90;;
7267;SDS011;3675;43.276;27.962;2022-07-22T03:59:16;2.40;;;2.20;;
7267;SDS011;3675;43.276;27.962;2022-07-22T04:01:42;2.53;;;2.33;;
7267;SDS011;3675;43.276;27.962;2022-07-22T04:04:17;2.47;;;2.30;;
7267;SDS011;3675;43.276;27.962;2022-07-22T04:06:43;1.98;;;1.67;;
7267;SDS011;3675;43.276;27.962;2022-07-22T04:09:10;3.60;;;2.00;;
7267;SDS011;3675;43.276;27.962;2022-07-22T04:11:35;2.47;;;2.17;;
7267;SDS011;3675;43.276;27.962;2022-07-22T04:14:04;3.42;;;2.25;;
7267;SDS011;3675;43.276;27.962;2022-07-22T04:16:29;2.50;;;1.95;;
7267;SDS011;3675;43.276;27.962;2022-07-22T04:18:55;3.45;;;1.90;;
7267;SDS011;3675;43.276;27.962;2022-07-22T04:21:22;2.03;;;1.83;;
7267;SDS011;3675;43.276;27.962;2022-07-22T04:23:47;3.50;;;1.90;;
7267;SDS011;3675;43.276;27.962;2022-07-22T04:26:16;2.72;;;1.77;;
7267;SDS011;3675;43.276;27.962;2022-07-22T04:28:51;2.47;;;2.10;;
7267;SDS011;3675;43.276;27.962;2022-07-22T04:31:17;1.83;;;1.73;;
7267;SDS011;3675;43.276;27.962;2022-07-22T04:33:42;2.25;;;2.15;;
7267;SDS011;3675;43.276;27.962;2022-07-22T04:36:08;2.03;;;1.83;;
7267;SDS011;3675;43.276;27.962;2022-07-22T04:38:43;2.75;;;2.50;;
7267;SDS011;3675;43.276;27.962;2022-07-22T04:41:11;1.90;;;1.77;;
7267;SDS011;3675;43.276;27.962;2022-07-22T04:43:36;2.13;;;1.95;;
7267;SDS011;3675;43.276;27.962;2022-07-22T04:46:05;1.90;;;1.80;;
7267;SDS011;3675;43.276;27.962;2022-07-22T04:48:31;2.08;;;1.92;;
7267;SDS011;3675;43.276;27.962;2022-07-22T04:51:06;4.07;;;1.92;;
7267;SDS011;3675;43.276;27.962;2022-07-22T04:53:31;2.50;;;2.30;;
7267;SDS011;3675;43.276;27.962;2022-07-22T04:56:00;3.10;;;1.80;;
7267;SDS011;3675;43.276;27.962;2022-07-22T04:58:28;1.75;;;1.65;;
7267;SDS011;3675;43.276;27.962;2022-07-22T05:03:32;1.90;;;1.80;;
7267;SDS011;3675;43.276;27.962;2022-07-22T05:06:02;1.58;;;1.48;;
7267;SDS011;3675;43.276;27.962;2022-07-22T05:08:33;1.98;;;1.88;;
7267;SDS011;3675;43.276;27.962;2022-07-22T05:11:06;1.65;;;1.55;;
7267;SDS011;3675;43.276;27.962;2022-07-22T05:13:34;1.95;;;1.85;;
7267;SDS011;3675;43.276;27.962;2022-07-22T05:16:06;1.90;;;1.70;;
7267;SDS011;3675;43.276;27.962;2022-07-22T05:18:33;1.58;;;1.58;;
7267;SDS011;3675;43.276;27.962;2022-07-22T05:21:01;1.90;;;1.80;;
7267;SDS011;3675;43.276;27.962;2022-07-22T05:23:27;4.65;;;1.73;;
7267;SDS011;3675;43.276;27.962;2022-07-22T05:25:52;1.55;;;1.50;;
7267;SDS011;3675;43.276;27.962;2022-07-22T05:28:24;2.75;;;1.50;;
7267;SDS011;3675;43.276;27.962;2022-07-22T05:30:53;1.42;;;1.33;;
7267;SDS011;3675;43.276;27.962;2022-07-22T05:33:21;1.20;;;1.20;;
7267;SDS011;3675;43.276;27.962;2022-07-22T05:35:46;1.25;;;1.00;;
7267;SDS011;3675;43.276;27.962;2022-07-22T05:38:12;1.52;;;1.40;;
7267;SDS011;3675;43.276;27.962;2022-07-22T05:40:38;1.10;;;1.10;;
7267;SDS011;3675;43.276;27.962;2022-07-22T05:43:03;1.38;;;1.27;;
7267;SDS011;3675;43.276;27.962;2022-07-22T05:46:52;1.20;;;1.20;;
7267;SDS011;3675;43.276;27.962;2022-07-22T05:49:18;4.60;;;1.65;;
7267;SDS011;3675;43.276;27.962;2022-07-22T05:51:44;1.98;;;1.40;;
7267;SDS011;3675;43.276;27.962;2022-07-22T05:54:11;1.27;;;1.27;;
7267;SDS011;3675;43.276;27.962;2022-07-22T05:56:36;1.05;;;1.05;;
7267;SDS011;3675;43.276;27.962;2022-07-22T05:59:02;1.17;;;1.17;;
7267;SDS011;3675;43.276;27.962;2022-07-22T06:01:27;1.30;;;1.20;;
7267;SDS011;3675;43.276;27.962;2022-07-22T06:03:52;1.27;;;1.27;;
7267;SDS011;3675;43.276;27.962;2022-07-22T06:06:18;1.30;;;1.30;;
7267;SDS011;3675;43.276;27.962;2022-07-22T06:08:43;1.15;;;1.10;;
7267;SDS011;3675;43.276;27.962;2022-07-22T06:11:09;1.45;;;1.35;;
7267;SDS011;3675;43.276;27.962;2022-07-22T06:13:34;2.45;;;1.38;;
7267;SDS011;3675;43.276;27.962;2022-07-22T06:16:00;4.15;;;1.15;;
7267;SDS011;3675;43.276;27.962;2022-07-22T06:18:25;1.02;;;1.02;;
7267;SDS011;3675;43.276;27.962;2022-07-22T06:20:51;0.95;;;0.95;;
7267;SDS011;3675;43.276;27.962;2022-07-22T06:23:19;1.10;;;1.00;;
7267;SDS011;3675;43.276;27.962;2022-07-22T06:25:45;1.25;;;1.15;;
7267;SDS011;3675;43.276;27.962;2022-07-22T06:28:10;1.27;;;1.27;;
7267;SDS011;3675;43.276;27.962;2022-07-22T06:30:36;1.60;;;1.50;;
7267;SDS011;3675;43.276;27.962;2022-07-22T06:33:02;1.92;;;0.98;;
7267;SDS011;3675;43.276;27.962;2022-07-22T06:35:49;1.92;;;1.35;;
7267;SDS011;3675;43.276;27.962;2022-07-22T06:38:14;0.73;;;0.73;;
7267;SDS011;3675;43.276;27.962;2022-07-22T06:40:39;0.95;;;0.95;;
7267;SDS011;3675;43.276;27.962;2022-07-22T06:43:05;3.35;;;1.05;;
7267;SDS011;3675;43.276;27.962;2022-07-22T06:45:31;0.82;;;0.82;;
7267;SDS011;3675;43.276;27.962;2022-07-22T06:47:57;1.38;;;1.27;;
7267;SDS011;3675;43.276;27.962;2022-07-22T06:50:23;0.82;;;0.82;;
7267;SDS011;3675;43.276;27.962;2022-07-22T06:52:50;2.17;;;1.25;;
7267;SDS011;3675;43.276;27.962;2022-07-22T06:55:15;1.55;;;1.02;;
7267;SDS011;3675;43.276;27.962;2022-07-22T06:57:42;1.60;;;1.05;;
7267;SDS011;3675;43.276;27.962;2022-07-22T07:00:07;1.15;;;1.08;;
7267;SDS011;3675;43.276;27.962;2022-07-22T07:02:34;2.35;;;1.25;;
7267;SDS011;3675;43.276;27.962;2022-07-22T07:04:59;0.77;;;0.77;;
7267;SDS011;3675;43.276;27.962;2022-07-22T07:07:25;0.98;;;0.80;;
7267;SDS011;3675;43.276;27.962;2022-07-22T07:09:50;0.98;;;0.98;;
7267;SDS011;3675;43.276;27.962;2022-07-22T07:12:16;2.00;;;1.08;;
7267;SDS011;3675;43.276;27.962;2022-07-22T07:14:41;0.93;;;0.93;;
7267;SDS011;3675;43.276;27.962;2022-07-22T07:17:06;0.60;;;0.60;;
7267;SDS011;3675;43.276;27.962;2022-07-22T07:19:35;1.00;;;1.00;;
7267;SDS011;3675;43.276;27.962;2022-07-22T07:22:00;1.05;;;1.05;;
7267;SDS011;3675;43.276;27.962;2022-07-22T07:24:26;0.82;;;0.82;;
7267;SDS011;3675;43.276;27.962;2022-07-22T07:26:54;2.13;;;0.80;;
7267;SDS011;3675;43.276;27.962;2022-07-22T07:29:19;0.65;;;0.65;;
7267;SDS011;3675;43.276;27.962;2022-07-22T07:31:45;1.00;;;1.00;;
7267;SDS011;3675;43.276;27.962;2022-07-22T07:34:10;6.40;;;1.25;;
7267;SDS011;3675;43.276;27.962;2022-07-22T07:36:36;0.70;;;0.70;;
7267;SDS011;3675;43.276;27.962;2022-07-22T07:39:02;2.28;;;0.77;;
7267;SDS011;3675;43.276;27.962;2022-07-22T07:41:27;0.90;;;0.90;;
7267;SDS011;3675;43.276;27.962;2022-07-22T07:43:55;0.70;;;0.70;;
7267;SDS011;3675;43.276;27.962;2022-07-22T07:46:21;0.80;;;0.80;;
7267;SDS011;3675;43.276;27.962;2022-07-22T07:48:46;0.73;;;0.73;;
7267;SDS011;3675;43.276;27.962;2022-07-22T07:51:13;0.95;;;0.80;;
7267;SDS011;3675;43.276;27.962;2022-07-22T07:53:38;0.60;;;0.55;;
7267;SDS011;3675;43.276;27.962;2022-07-22T07:56:07;1.00;;;1.00;;
7267;SDS011;3675;43.276;27.962;2022-07-22T07:58:32;0.70;;;0.70;;
7267;SDS011;3675;43.276;27.962;2022-07-22T08:00:58;0.65;;;0.65;;
7267;SDS011;3675;43.276;27.962;2022-07-22T08:03:23;1.38;;;0.93;;
7267;SDS011;3675;43.276;27.962;2022-07-22T08:05:49;0.73;;;0.73;;
7267;SDS011;3675;43.276;27.962;2022-07-22T08:08:14;0.70;;;0.70;;
7267;SDS011;3675;43.276;27.962;2022-07-22T08:10:40;0.77;;;0.77;;
7267;SDS011;3675;43.276;27.962;2022-07-22T08:13:05;1.00;;;0.85;;
7267;SDS011;3675;43.276;27.962;2022-07-22T08:15:31;1.55;;;1.02;;
7267;SDS011;3675;43.276;27.962;2022-07-22T08:17:56;0.88;;;0.88;;
7267;SDS011;3675;43.276;27.962;2022-07-22T08:20:23;0.70;;;0.60;;
7267;SDS011;3675;43.276;27.962;2022-07-22T08:22:49;0.80;;;0.80;;
7267;SDS011;3675;43.276;27.962;2022-07-22T08:25:14;0.70;;;0.70;;
7267;SDS011;3675;43.276;27.962;2022-07-22T08:27:40;1.35;;;0.70;;
7267;SDS011;3675;43.276;27.962;2022-07-22T08:30:12;0.50;;;0.50;;
7267;SDS011;3675;43.276;27.962;2022-07-22T08:32:37;0.65;;;0.65;;
7267;SDS011;3675;43.276;27.962;2022-07-22T08:35:03;1.27;;;0.73;;
7267;SDS011;3675;43.276;27.962;2022-07-22T08:37:29;0.65;;;0.65;;
7267;SDS011;3675;43.276;27.962;2022-07-22T08:39:54;0.80;;;0.80;;
7267;SDS011;3675;43.276;27.962;2022-07-22T08:42:21;2.78;;;0.70;;
7267;SDS011;3675;43.276;27.962;2022-07-22T08:44:47;0.82;;;0.82;;
7267;SDS011;3675;43.276;27.962;2022-07-22T08:47:12;0.90;;;0.70;;
7267;SDS011;3675;43.276;27.962;2022-07-22T08:49:38;0.75;;;0.75;;
7267;SDS011;3675;43.276;27.962;2022-07-22T08:52:03;0.60;;;0.60;;
7267;SDS011;3675;43.276;27.962;2022-07-22T08:54:29;0.90;;;0.50;;
7267;SDS011;3675;43.276;27.962;2022-07-22T08:56:54;0.88;;;0.88;;
7267;SDS011;3675;43.276;27.962;2022-07-22T08:59:20;0.50;;;0.50;;
7267;SDS011;3675;43.276;27.962;2022-07-22T09:04:29;0.88;;;0.60;;
7267;SDS011;3675;43.276;27.962;2022-07-22T09:06:56;0.70;;;0.70;;
7267;SDS011;3675;43.276;27.962;2022-07-22T09:09:29;0.77;;;0.77;;
7267;SDS011;3675;43.276;27.962;2022-07-22T09:12:03;2.55;;;0.98;;
7267;SDS011;3675;43.276;27.962;2022-07-22T09:14:31;0.60;;;0.60;;
7267;SDS011;3675;43.276;27.962;2022-07-22T09:19:53;0.77;;;0.77;;
7267;SDS011;3675;43.276;27.962;2022-07-22T09:22:33;0.60;;;0.60;;
7267;SDS011;3675;43.276;27.962;2022-07-22T09:25:02;0.85;;;0.70;;
7267;SDS011;3675;43.276;27.962;2022-07-22T09:27:41;0.63;;;0.63;;
7267;SDS011;3675;43.276;27.962;2022-07-22T09:30:09;0.80;;;0.80;;
7267;SDS011;3675;43.276;27.962;2022-07-22T09:32:38;0.85;;;0.85;;
7267;SDS011;3675;43.276;27.962;2022-07-22T09:35:05;0.77;;;0.77;;
7267;SDS011;3675;43.276;27.962;2022-07-22T09:37:31;1.00;;;1.00;;
7267;SDS011;3675;43.276;27.962;2022-07-22T09:40:11;0.50;;;0.50;;
7267;SDS011;3675;43.276;27.962;2022-07-22T09:42:43;0.55;;;0.55;;
7267;SDS011;3675;43.276;27.962;2022-07-22T09:45:15;0.65;;;0.65;;
7267;SDS011;3675;43.276;27.962;2022-07-22T09:47:41;0.57;;;0.57;;
7267;SDS011;3675;43.276;27.962;2022-07-22T09:50:41;0.50;;;0.50;;
7267;SDS011;3675;43.276;27.962;2022-07-22T09:53:00;0.60;;;0.60;;
7267;SDS011;3675;43.276;27.962;2022-07-22T09:55:26;0.43;;;0.43;;
7267;SDS011;3675;43.276;27.962;2022-07-22T09:57:52;0.47;;;0.47;;
7267;SDS011;3675;43.276;27.962;2022-07-22T10:00:20;0.60;;;0.60;;
7267;SDS011;3675;43.276;27.962;2022-07-22T10:02:47;2.10;;;0.50;;
7267;SDS011;3675;43.276;27.962;2022-07-22T10:05:13;0.65;;;0.65;;
7267;SDS011;3675;43.276;27.962;2022-07-22T10:07:40;0.60;;;0.60;;
7267;SDS011;3675;43.276;27.962;2022-07-22T10:10:07;0.95;;;0.95;;
7267;SDS011;3675;43.276;27.962;2022-07-22T10:12:32;0.70;;;0.70;;
7267;SDS011;3675;43.276;27.962;2022-07-22T10:15:02;1.15;;;0.68;;
7267;SDS011;3675;43.276;27.962;2022-07-22T10:17:28;0.75;;;0.75;;
7267;SDS011;3675;43.276;27.962;2022-07-22T10:19:54;7.10;;;1.17;;
7267;SDS011;3675;43.276;27.962;2022-07-22T10:25:07;2.15;;;0.95;;
7267;SDS011;3675;43.276;27.962;2022-07-22T10:27:46;4.13;;;1.00;;
7267;SDS011;3675;43.276;27.962;2022-07-22T10:30:15;1.73;;;0.65;;
7267;SDS011;3675;43.276;27.962;2022-07-22T10:32:41;0.73;;;0.73;;
7267;SDS011;3675;43.276;27.962;2022-07-22T10:40:19;1.10;;;1.10;;
7267;SDS011;3675;43.276;27.962;2022-07-22T10:45:39;0.95;;;0.85;;
7267;SDS011;3675;43.276;27.962;2022-07-22T10:48:17;0.93;;;0.93;;
7267;SDS011;3675;43.276;27.962;2022-07-22T10:50:48;1.30;;;1.30;;
7267;SDS011;3675;43.276;27.962;2022-07-22T10:56:33;0.90;;;0.90;;
7267;SDS011;3675;43.276;27.962;2022-07-22T10:59:13;0.75;;;0.75;;
7267;SDS011;3675;43.276;27.962;2022-07-22T11:01:43;0.90;;;0.90;;
7267;SDS011;3675;43.276;27.962;2022-07-22T11:04:20;0.80;;;0.80;;
7267;SDS011;3675;43.276;27.962;2022-07-22T11:06:47;4.28;;;0.98;;
7267;SDS011;3675;43.276;27.962;2022-07-22T11:09:13;0.55;;;0.55;;
7267;SDS011;3675;43.276;27.962;2022-07-22T11:11:39;1.00;;;1.00;;
7267;SDS011;3675;43.276;27.962;2022-07-22T11:14:13;0.82;;;0.82;;
7267;SDS011;3675;43.276;27.962;2022-07-22T11:16:39;0.88;;;0.88;;
7267;SDS011;3675;43.276;27.962;2022-07-22T11:19:04;0.95;;;0.95;;
7267;SDS011;3675;43.276;27.962;2022-07-22T11:21:31;0.60;;;0.60;;
7267;SDS011;3675;43.276;27.962;2022-07-22T11:23:58;3.97;;;0.82;;
7267;SDS011;3675;43.276;27.962;2022-07-22T11:26:34;1.10;;;1.00;;
7267;SDS011;3675;43.276;27.962;2022-07-22T11:29:00;0.73;;;0.73;;
7267;SDS011;3675;43.276;27.962;2022-07-22T11:31:26;0.90;;;0.90;;
7267;SDS011;3675;43.276;27.962;2022-07-22T11:34:04;1.23;;;0.70;;
7267;SDS011;3675;43.276;27.962;2022-07-22T11:36:31;0.75;;;0.75;;
7267;SDS011;3675;43.276;27.962;2022-07-22T11:38:57;0.65;;;0.65;;
7267;SDS011;3675;43.276;27.962;2022-07-22T11:41:22;0.88;;;0.88;;
7267;SDS011;3675;43.276;27.962;2022-07-22T11:43:48;1.00;;;1.00;;
7267;SDS011;3675;43.276;27.962;2022-07-22T11:46:17;0.80;;;0.70;;
7267;SDS011;3675;43.276;27.962;2022-07-22T11:48:43;1.40;;;0.80;;
7267;SDS011;3675;43.276;27.962;2022-07-22T11:51:09;0.80;;;0.80;;
7267;SDS011;3675;43.276;27.962;2022-07-22T11:53:36;0.80;;;0.80;;
7267;SDS011;3675;43.276;27.962;2022-07-22T11:56:02;0.98;;;0.90;;
7267;SDS011;3675;43.276;27.962;2022-07-22T11:58:38;1.10;;;0.80;;
7267;SDS011;3675;43.276;27.962;2022-07-22T12:01:07;0.55;;;0.55;;
7267;SDS011;3675;43.276;27.962;2022-07-22T12:03:34;1.17;;;1.17;;
7267;SDS011;3675;43.276;27.962;2022-07-22T12:06:00;0.90;;;0.90;;
7267;SDS011;3675;43.276;27.962;2022-07-22T12:08:26;0.95;;;0.95;;
7267;SDS011;3675;43.276;27.962;2022-07-22T12:10:52;1.17;;;1.17;;
7267;SDS011;3675;43.276;27.962;2022-07-22T12:13:17;1.73;;;1.63;;
7267;SDS011;3675;43.276;27.962;2022-07-22T12:15:45;0.90;;;0.90;;
7267;SDS011;3675;43.276;27.962;2022-07-22T12:18:18;1.20;;;1.20;;
7267;SDS011;3675;43.276;27.962;2022-07-22T12:20:45;1.20;;;1.20;;
7267;SDS011;3675;43.276;27.962;2022-07-22T12:23:13;0.98;;;0.73;;
7267;SDS011;3675;43.276;27.962;2022-07-22T12:25:57;0.55;;;0.55;;
7267;SDS011;3675;43.276;27.962;2022-07-22T12:28:23;3.25;;;0.88;;
7267;SDS011;3675;43.276;27.962;2022-07-22T12:30:50;0.90;;;0.90;;
7267;SDS011;3675;43.276;27.962;2022-07-22T12:33:16;0.80;;;0.80;;
7267;SDS011;3675;43.276;27.962;2022-07-22T12:35:57;3.47;;;0.80;;
7267;SDS011;3675;43.276;27.962;2022-07-22T12:38:23;0.63;;;0.60;;
7267;SDS011;3675;43.276;27.962;2022-07-22T12:40:51;0.43;;;0.43;;
7267;SDS011;3675;43.276;27.962;2022-07-22T12:43:17;0.90;;;0.90;;
7267;SDS011;3675;43.276;27.962;2022-07-22T12:45:42;0.68;;;0.65;;
7267;SDS011;3675;43.276;27.962;2022-07-22T12:48:08;1.27;;;0.63;;
7267;SDS011;3675;43.276;27.962;2022-07-22T12:50:38;1.27;;;0.68;;
7267;SDS011;3675;43.276;27.962;2022-07-22T12:53:05;4.82;;;0.73;;
7267;SDS011;3675;43.276;27.962;2022-07-22T12:55:35;0.85;;;0.80;;
7267;SDS011;3675;43.276;27.962;2022-07-22T12:58:01;0.85;;;0.85;;
7267;SDS011;3675;43.276;27.962;2022-07-22T13:00:27;1.10;;;1.10;;
7267;SDS011;3675;43.276;27.962;2022-07-22T13:02:53;1.15;;;1.10;;
7267;SDS011;3675;43.276;27.962;2022-07-22T13:05:19;1.67;;;1.50;;
7267;SDS011;3675;43.276;27.962;2022-07-22T13:07:45;1.10;;;1.10;;
7267;SDS011;3675;43.276;27.962;2022-07-22T13:10:11;1.10;;;1.10;;
7267;SDS011;3675;43.276;27.962;2022-07-22T13:12:37;2.00;;;1.83;;
7267;SDS011;3675;43.276;27.962;2022-07-22T13:15:05;1.25;;;1.25;;
7267;SDS011;3675;43.276;27.962;2022-07-22T13:17:31;1.67;;;1.58;;
7267;SDS011;3675;43.276;27.962;2022-07-22T13:19:56;1.77;;;1.67;;
7267;SDS011;3675;43.276;27.962;2022-07-22T13:22:22;1.38;;;1.30;;
7267;SDS011;3675;43.276;27.962;2022-07-22T13:24:48;1.75;;;1.52;;
7267;SDS011;3675;43.276;27.962;2022-07-22T13:27:13;1.60;;;1.50;;
7267;SDS011;3675;43.276;27.962;2022-07-22T13:29:39;1.45;;;1.42;;
7267;SDS011;3675;43.276;27.962;2022-07-22T13:32:04;1.30;;;1.30;;
7267;SDS011;3675;43.276;27.962;2022-07-22T13:34:30;1.77;;;1.67;;
7267;SDS011;3675;43.276;27.962;2022-07-22T13:36:59;1.75;;;1.65;;
7267;SDS011;3675;43.276;27.962;2022-07-22T13:39:25;1.75;;;1.65;;
7267;SDS011;3675;43.276;27.962;2022-07-22T13:41:50;2.13;;;1.85;;
7267;SDS011;3675;43.276;27.962;2022-07-22T13:44:16;1.88;;;1.77;;
7267;SDS011;3675;43.276;27.962;2022-07-22T13:46:41;3.65;;;1.70;;
7267;SDS011;3675;43.276;27.962;2022-07-22T13:49:07;2.25;;;2.08;;
7267;SDS011;3675;43.276;27.962;2022-07-22T13:51:32;4.43;;;1.70;;
7267;SDS011;3675;43.276;27.962;2022-07-22T13:53:58;1.90;;;1.67;;
7267;SDS011;3675;43.276;27.962;2022-07-22T13:56:23;1.60;;;1.55;;
7267;SDS011;3675;43.276;27.962;2022-07-22T13:58:49;1.80;;;1.55;;
7267;SDS011;3675;43.276;27.962;2022-07-22T14:01:14;2.20;;;1.35;;
7267;SDS011;3675;43.276;27.962;2022-07-22T14:03:40;3.20;;;1.92;;
7267;SDS011;3675;43.276;27.962;2022-07-22T14:06:05;1.52;;;1.50;;
7267;SDS011;3675;43.276;27.962;2022-07-22T14:08:31;1.23;;;1.23;;
7267;SDS011;3675;43.276;27.962;2022-07-22T14:10:57;1.23;;;1.23;;
7267;SDS011;3675;43.276;27.962;2022-07-22T14:13:22;3.28;;;1.52;;
7267;SDS011;3675;43.276;27.962;2022-07-22T14:15:48;1.55;;;1.45;;
7267;SDS011;3675;43.276;27.962;2022-07-22T14:18:13;1.60;;;1.50;;
7267;SDS011;3675;43.276;27.962;2022-07-22T14:20:39;1.40;;;1.13;;
7267;SDS011;3675;43.276;27.962;2022-07-22T14:23:05;1.33;;;1.33;;
7267;SDS011;3675;43.276;27.962;2022-07-22T14:25:31;2.35;;;1.40;;
7267;SDS011;3675;43.276;27.962;2022-07-22T14:27:57;1.27;;;1.27;;
7267;SDS011;3675;43.276;27.962;2022-07-22T14:30:22;2.80;;;1.13;;
7267;SDS011;3675;43.276;27.962;2022-07-22T14:32:48;1.15;;;1.08;;
7267;SDS011;3675;43.276;27.962;2022-07-22T14:35:13;3.13;;;1.33;;
7267;SDS011;3675;43.276;27.962;2022-07-22T14:37:38;1.20;;;1.20;;
7267;SDS011;3675;43.276;27.962;2022-07-22T14:40:04;3.47;;;1.40;;
7267;SDS011;3675;43.276;27.962;2022-07-22T14:42:30;2.38;;;0.90;;
7267;SDS011;3675;43.276;27.962;2022-07-22T14:44:58;2.95;;;1.10;;
7267;SDS011;3675;43.276;27.962;2022-07-22T14:47:24;1.25;;;1.25;;
7267;SDS011;3675;43.276;27.962;2022-07-22T14:49:49;1.20;;;1.20;;
7267;SDS011;3675;43.276;27.962;2022-07-22T14:52:14;5.90;;;1.40;;
7267;SDS011;3675;43.276;27.962;2022-07-22T14:54:40;1.25;;;1.15;;
7267;SDS011;3675;43.276;27.962;2022-07-22T14:57:05;0.98;;;0.95;;
7267;SDS011;3675;43.276;27.962;2022-07-22T14:59:33;7.20;;;1.70;;
7267;SDS011;3675;43.276;27.962;2022-07-22T15:01:59;0.82;;;0.82;;
7267;SDS011;3675;43.276;27.962;2022-07-22T15:04:24;1.73;;;1.35;;
7267;SDS011;3675;43.276;27.962;2022-07-22T15:06:55;1.20;;;1.10;;
7267;SDS011;3675;43.276;27.962;2022-07-22T15:09:20;2.53;;;1.50;;
7267;SDS011;3675;43.276;27.962;2022-07-22T15:11:46;1.25;;;1.17;;
7267;SDS011;3675;43.276;27.962;2022-07-22T15:14:12;1.67;;;1.58;;
7267;SDS011;3675;43.276;27.962;2022-07-22T15:16:37;5.60;;;2.15;;
7267;SDS011;3675;43.276;27.962;2022-07-22T15:19:03;2.55;;;1.08;;
7267;SDS011;3675;43.276;27.962;2022-07-22T15:21:28;1.80;;;1.33;;
7267;SDS011;3675;43.276;27.962;2022-07-22T15:23:54;1.10;;;1.10;;